Time;durP1;ratioP1;P1;durP2;ratioP2;P2;SDS_P1;SDS_P2;PMS_P1;PMS_P2;Temp;Humidity;BMP_temperature;BMP_pressure;BME280_temperature;BME280_humidity;BME280_pressure;Samples;Min_cycle;Max_cycle;Signal;HPM_P1;HPM_P2
2022/09/05 00:02:14;;;;;;;8.45;2.38;;;18.60;99.90;;;;;;5015045;28;20141;-96
2022/09/05 00:05:04;;;;;;;6.88;2.33;;;18.60;99.90;;;;;;5014505;28;20545;-94
2022/09/05 00:07:33;;;;;;;7.35;2.50;;;18.50;99.90;;;;;;5014919;28;20132;-94
2022/09/05 00:10:09;;;;;;;6.45;2.28;;;18.50;99.90;;;;;;5015090;28;20479;-94
2022/09/05 00:12:36;;;;;;;11.25;2.72;;;18.50;99.90;;;;;;5015382;28;20132;-94
2022/09/05 00:15:15;;;;;;;6.65;2.35;;;18.40;99.90;;;;;;5016236;28;20088;-94
2022/09/05 00:18:02;;;;;;;7.45;2.50;;;18.40;99.90;;;;;;5014096;28;20048;-95
2022/09/05 00:20:36;;;;;;;7.88;2.72;;;18.40;99.90;;;;;;5014396;28;20057;-94
2022/09/05 00:23:11;;;;;;;5.53;2.53;;;18.30;99.90;;;;;;5016978;28;20076;-94
2022/09/05 00:26:10;;;;;;;6.88;2.53;;;18.30;99.90;;;;;;5016573;28;20056;-95
2022/09/05 00:28:50;;;;;;;11.25;3.15;;;18.30;99.90;;;;;;5015978;28;20045;-94
2022/09/05 00:31:52;;;;;;;5.75;3.05;;;18.20;99.90;;;;;;5014637;28;20050;-94
2022/09/05 00:34:36;;;;;;;7.70;3.22;;;18.20;99.90;;;;;;5051096;28;20114;-94
2022/09/05 00:37:03;;;;;;;8.63;3.30;;;18.10;99.90;;;;;;5052829;28;20056;-93
2022/09/05 00:39:33;;;;;;;9.98;3.67;;;18.10;99.90;;;;;;5050478;28;20037;-94
2022/09/05 00:42:07;;;;;;;9.05;3.30;;;18.00;99.90;;;;;;5050312;28;20041;-95
2022/09/05 00:44:46;;;;;;;11.98;3.90;;;18.10;99.90;;;;;;5051189;28;20044;-94
2022/09/05 00:47:27;;;;;;;6.90;3.80;;;18.00;99.90;;;;;;5049903;28;20048;-94
2022/09/05 00:50:00;;;;;;;10.15;3.80;;;18.00;99.90;;;;;;5052798;28;20435;-94
2022/09/05 00:52:41;;;;;;;8.43;3.58;;;18.00;99.90;;;;;;5050930;28;20055;-94
2022/09/05 00:55:20;;;;;;;5.60;3.53;;;17.90;99.90;;;;;;5050695;28;20041;-94
2022/09/05 00:58:02;;;;;;;7.65;3.60;;;17.90;99.90;;;;;;5050590;28;20049;-94
2022/09/05 01:00:32;;;;;;;11.50;3.60;;;17.90;99.90;;;;;;5050248;28;20056;-94
2022/09/05 01:03:28;;;;;;;9.63;3.78;;;17.90;99.90;;;;;;5051945;28;20082;-94
2022/09/05 01:05:56;;;;;;;11.55;4.20;;;17.80;99.90;;;;;;5050556;28;20135;-94
2022/09/05 01:08:36;;;;;;;9.23;3.90;;;17.80;99.90;;;;;;5016274;28;20317;-94
2022/09/05 01:11:34;;;;;;;8.30;3.50;;;17.80;99.90;;;;;;5017778;28;20048;-94
2022/09/05 01:14:26;;;;;;;10.68;3.70;;;17.80;99.90;;;;;;5033092;28;20073;-94
2022/09/05 01:17:22;;;;;;;7.97;3.85;;;17.70;99.90;;;;;;5033747;28;20571;-94
2022/09/05 01:20:27;;;;;;;10.30;3.78;;;17.70;99.90;;;;;;5033679;28;20126;-94
2022/09/05 01:23:01;;;;;;;6.15;3.60;;;17.60;99.90;;;;;;5033085;28;20037;-94
2022/09/05 01:25:39;;;;;;;8.07;3.90;;;17.60;99.90;;;;;;5016636;28;20575;-94
2022/09/05 01:28:25;;;;;;;5.35;3.53;;;17.50;99.90;;;;;;5032444;28;20045;-94
2022/09/05 01:31:01;;;;;;;10.32;3.72;;;17.50;99.90;;;;;;5016965;28;20136;-94
2022/09/05 01:33:40;;;;;;;7.40;3.78;;;17.50;99.90;;;;;;5032734;28;20049;-94
2022/09/05 01:36:14;;;;;;;7.32;4.15;;;17.40;99.90;;;;;;5016637;28;20045;-94
2022/09/05 01:38:50;;;;;;;9.65;4.00;;;17.40;99.90;;;;;;5017759;28;20048;-94
2022/09/05 01:41:39;;;;;;;7.47;3.28;;;17.40;99.90;;;;;;5016730;28;20110;-93
2022/09/05 01:44:25;;;;;;;8.80;3.58;;;17.30;99.90;;;;;;5015490;28;20064;-94
2022/09/05 01:46:51;;;;;;;9.95;3.45;;;17.30;99.90;;;;;;5016296;28;20049;-94
2022/09/05 01:49:44;;;;;;;5.32;3.28;;;17.20;99.90;;;;;;5016064;28;20044;-94
2022/09/05 01:52:28;;;;;;;6.10;3.80;;;17.20;99.90;;;;;;5016413;28;20045;-94
2022/09/05 01:55:12;;;;;;;7.10;3.53;;;17.10;99.90;;;;;;5027795;28;20050;-94
2022/09/05 01:57:59;;;;;;;9.85;3.70;;;17.00;99.90;;;;;;5036384;28;20055;-94
2022/09/05 02:00:43;;;;;;;9.60;3.80;;;17.00;99.90;;;;;;5037682;28;20049;-95
2022/09/05 02:03:27;;;;;;;21.50;3.90;;;16.90;99.90;;;;;;5037754;28;20463;-94
2022/09/05 02:06:08;;;;;;;10.02;3.67;;;16.90;99.90;;;;;;5037085;28;20048;-94
2022/09/05 02:08:50;;;;;;;9.88;3.90;;;16.80;99.90;;;;;;5036265;28;20056;-94
2022/09/05 02:11:16;;;;;;;10.43;3.88;;;16.80;99.90;;;;;;5037057;28;20040;-95
2022/09/05 02:13:51;;;;;;;7.70;4.43;;;16.70;99.90;;;;;;5035756;28;20047;-94
2022/09/05 02:16:24;;;;;;;5.35;3.95;;;16.60;99.90;;;;;;5035890;28;20041;-94
2022/09/05 02:19:08;;;;;;;7.43;3.60;;;16.60;99.90;;;;;;5035772;28;20135;-94
2022/09/05 02:21:36;;;;;;;6.43;3.63;;;16.50;99.90;;;;;;5036701;28;20040;-94
2022/09/05 02:24:20;;;;;;;8.40;4.35;;;16.40;99.90;;;;;;5037457;28;20044;-94
2022/09/05 02:27:11;;;;;;;10.25;3.90;;;16.40;99.90;;;;;;5036316;28;20047;-94
2022/09/05 02:29:54;;;;;;;6.15;4.13;;;16.30;99.90;;;;;;5020289;28;20045;-94
2022/09/05 02:32:36;;;;;;;10.57;3.92;;;16.20;99.90;;;;;;5011605;28;20121;-94
2022/09/05 02:35:11;;;;;;;7.65;3.63;;;16.20;99.90;;;;;;5013395;28;20048;-94
2022/09/05 02:37:42;;;;;;;6.90;3.78;;;16.20;99.90;;;;;;5012465;28;20046;-94
2022/09/05 02:40:27;;;;;;;5.95;3.55;;;16.20;99.90;;;;;;5012549;28;20071;-94
2022/09/05 02:43:01;;;;;;;9.98;3.97;;;16.20;99.90;;;;;;5012507;28;20045;-93
2022/09/05 02:45:38;;;;;;;8.18;3.90;;;16.20;99.90;;;;;;5012983;28;20128;-94
2022/09/05 02:48:09;;;;;;;9.00;4.00;;;16.20;99.90;;;;;;5012450;28;20045;-94
2022/09/05 02:50:53;;;;;;;7.43;3.38;;;16.20;99.90;;;;;;5012644;28;20037;-94
2022/09/05 02:53:21;;;;;;;12.10;4.05;;;16.20;99.90;;;;;;5012106;28;20037;-94
2022/09/05 02:56:11;;;;;;;8.00;3.85;;;16.10;99.90;;;;;;5012710;28;20083;-94
2022/09/05 02:58:51;;;;;;;9.63;3.90;;;16.10;99.90;;;;;;5012592;28;20160;-93
2022/09/05 03:01:36;;;;;;;8.35;3.90;;;16.10;99.90;;;;;;5011942;28;20091;-93
2022/09/05 03:04:13;;;;;;;11.10;3.95;;;16.10;99.90;;;;;;5012911;28;20493;-94
2022/09/05 03:06:57;;;;;;;7.70;3.92;;;16.00;99.90;;;;;;5012036;28;20392;-95
2022/09/05 03:09:33;;;;;;;8.05;4.43;;;16.00;99.90;;;;;;5012115;28;20083;-94
2022/09/05 03:12:08;;;;;;;8.50;4.10;;;16.00;99.90;;;;;;5012647;28;20052;-94
2022/09/05 03:15:07;;;;;;;11.32;4.22;;;16.00;99.90;;;;;;5011373;28;20509;-94
2022/09/05 03:17:53;;;;;;;7.93;4.75;;;15.90;99.90;;;;;;5011078;28;20095;-93
2022/09/05 03:20:54;;;;;;;19.15;4.35;;;15.90;99.90;;;;;;5011915;28;20053;-93
2022/09/05 03:23:23;;;;;;;10.38;4.30;;;15.90;99.90;;;;;;5012005;28;20545;-94
2022/09/05 03:25:55;;;;;;;9.98;4.07;;;15.90;99.90;;;;;;5011993;28;20049;-94
2022/09/05 03:28:58;;;;;;;5.35;3.72;;;15.90;99.90;;;;;;5011426;28;20080;-93
2022/09/05 03:31:43;;;;;;;8.73;3.80;;;15.90;99.90;;;;;;5012975;28;20049;-92
2022/09/05 03:34:37;;;;;;;12.27;4.35;;;15.80;99.90;;;;;;5015379;28;20049;-94
2022/09/05 03:37:40;;;;;;;6.43;3.70;;;15.80;99.90;;;;;;5015096;28;20114;-94
2022/09/05 03:40:40;;;;;;;5.75;4.47;;;15.70;99.90;;;;;;5015849;28;20045;-93
2022/09/05 03:43:28;;;;;;;7.22;4.75;;;15.60;99.90;;;;;;5014879;28;20393;-93
2022/09/05 03:46:22;;;;;;;9.77;3.92;;;15.50;99.90;;;;;;5015635;28;20044;-93
2022/09/05 03:48:58;;;;;;;6.68;4.10;;;15.50;99.90;;;;;;5014142;28;20140;-93
2022/09/05 03:51:49;;;;;;;6.30;4.15;;;15.50;99.90;;;;;;5014667;28;20056;-94
2022/09/05 03:54:42;;;;;;;7.22;3.92;;;15.40;99.90;;;;;;5015143;28;20404;-94
2022/09/05 03:57:37;;;;;;;6.43;4.23;;;15.40;99.90;;;;;;5018261;28;20626;-93
2022/09/05 04:00:09;;;;;;;6.30;4.00;;;15.40;99.90;;;;;;5038558;28;20044;-95
2022/09/05 04:02:50;;;;;;;11.75;3.97;;;15.40;99.90;;;;;;5038003;28;20053;-93
2022/09/05 04:05:23;;;;;;;7.63;3.90;;;15.40;99.90;;;;;;5040544;28;20041;-94
2022/09/05 04:07:53;;;;;;;;;;;15.50;99.90;;;;;;5040328;28;20060;-94
2022/09/05 04:10:31;;;;;;;6.80;4.25;;;15.30;99.90;;;;;;5038305;28;20007;-94
2022/09/05 04:13:07;;;;;;;8.73;4.82;;;15.30;99.90;;;;;;5038522;28;20036;-93
2022/09/05 04:15:40;;;;;;;6.32;4.38;;;15.20;99.90;;;;;;5038621;28;20649;-94
2022/09/05 04:18:18;;;;;;;5.57;4.10;;;15.50;99.90;;;;;;5037679;28;20044;-94
2022/09/05 04:20:52;;;;;;;10.02;4.93;;;15.20;99.90;;;;;;5038233;28;20405;-94
2022/09/05 04:23:29;;;;;;;8.48;4.68;;;15.20;99.90;;;;;;5038776;28;20059;-94
2022/09/05 04:26:33;;;;;;;9.88;4.50;;;15.20;99.90;;;;;;5038672;28;20040;-94
2022/09/05 04:29:18;;;;;;;7.18;5.10;;;15.10;99.90;;;;;;5038398;28;20051;-94
2022/09/05 04:32:05;;;;;;;9.93;4.20;;;15.00;99.90;;;;;;5037193;28;20059;-94
2022/09/05 04:34:41;;;;;;;9.85;4.53;;;15.10;99.90;;;;;;5056025;28;20048;-94
2022/09/05 04:37:09;;;;;;;8.35;4.43;;;15.00;99.90;;;;;;5037715;28;20045;-94
2022/09/05 04:39:35;;;;;;;8.52;4.63;;;15.00;99.90;;;;;;5037120;28;20047;-94
2022/09/05 04:42:04;;;;;;;9.45;5.10;;;15.00;99.90;;;;;;5037576;28;20048;-94
2022/09/05 04:44:40;;;;;;;13.45;5.57;;;15.00;99.90;;;;;;5037905;28;20080;-94
2022/09/05 04:47:18;;;;;;;6.93;4.65;;;15.10;99.90;;;;;;5032352;28;20037;-94
2022/09/05 04:50:02;;;;;;;9.00;4.40;;;15.10;99.90;;;;;;5018309;28;20290;-95
2022/09/05 04:52:41;;;;;;;6.47;4.88;;;15.00;99.90;;;;;;5017352;28;20041;-95
2022/09/05 04:55:12;;;;;;;8.43;4.97;;;15.00;99.90;;;;;;5017806;28;20052;-95
2022/09/05 04:57:52;;;;;;;8.23;4.63;;;14.90;99.90;;;;;;5019109;28;20049;-94
2022/09/05 05:00:41;;;;;;;9.02;4.88;;;14.90;99.90;;;;;;5018027;28;20167;-96
2022/09/05 05:03:14;;;;;;;7.22;4.97;;;14.90;99.90;;;;;;5019076;28;20088;-96
2022/09/05 05:05:46;;;;;;;8.93;4.60;;;14.90;99.90;;;;;;5019575;28;20033;-96
2022/09/05 05:08:21;;;;;;;7.10;5.05;;;14.90;99.90;;;;;;5017092;28;20412;-95
2022/09/05 05:10:55;;;;;;;10.02;4.78;;;14.80;99.90;;;;;;5019714;28;20033;-95
2022/09/05 05:13:43;;;;;;;7.28;4.63;;;14.80;99.90;;;;;;5016698;28;20049;-95
2022/09/05 05:16:15;;;;;;;12.20;5.18;;;14.80;99.90;;;;;;5017865;28;20044;-95
2022/09/05 05:18:50;;;;;;;8.98;5.20;;;14.80;99.90;;;;;;5018028;28;20044;-95
2022/09/05 05:21:23;;;;;;;10.85;5.60;;;14.80;99.90;;;;;;5016650;28;20140;-95
2022/09/05 05:23:53;;;;;;;14.50;5.35;;;14.80;99.90;;;;;;5018128;28;20041;-95
2022/09/05 05:26:29;;;;;;;12.50;5.15;;;14.90;99.90;;;;;;5018166;28;20392;-93
2022/09/05 05:29:07;;;;;;;10.93;4.88;;;14.80;99.90;;;;;;5029925;28;20041;-95
2022/09/05 05:31:37;;;;;;;12.18;5.28;;;14.80;99.90;;;;;;5015810;28;20206;-96
2022/09/05 05:34:14;;;;;;;8.77;5.15;;;14.80;99.90;;;;;;5015242;28;20049;-94
2022/09/05 05:36:49;;;;;;;11.35;4.43;;;14.80;99.90;;;;;;5014834;28;20507;-94
2022/09/05 05:39:28;;;;;;;8.57;5.32;;;14.90;99.90;;;;;;5016336;28;20048;-95
2022/09/05 05:41:56;;;;;;;8.13;4.90;;;15.00;99.90;;;;;;5014787;28;20072;-94
2022/09/05 05:44:27;;;;;;;10.00;4.85;;;15.00;99.90;;;;;;5016301;28;20041;-95
2022/09/05 05:47:08;;;;;;;10.88;5.05;;;15.10;99.90;;;;;;5014988;28;20068;-95
2022/09/05 05:49:37;;;;;;;8.05;5.00;;;15.20;99.90;;;;;;5016097;28;20053;-95
2022/09/05 05:52:18;;;;;;;7.45;4.95;;;15.30;99.90;;;;;;5012909;28;20045;-96
2022/09/05 05:54:59;;;;;;;8.38;5.13;;;15.40;99.90;;;;;;5015915;28;20048;-96
2022/09/05 05:57:44;;;;;;;8.35;4.90;;;15.40;99.90;;;;;;5020196;28;20062;-96
2022/09/05 06:00:14;;;;;;;8.57;4.63;;;15.50;99.90;;;;;;5035974;28;20045;-95
2022/09/05 06:02:47;;;;;;;8.63;5.00;;;15.60;99.90;;;;;;5033844;28;20049;-96
2022/09/05 06:05:34;;;;;;;6.75;4.93;;;15.70;99.90;;;;;;5034104;28;20051;-94
2022/09/05 06:08:28;;;;;;;6.57;4.78;;;15.70;99.90;;;;;;5036432;28;20040;-95
2022/09/05 06:11:04;;;;;;;8.10;4.68;;;15.90;99.90;;;;;;5034831;28;20354;-96
2022/09/05 06:13:54;;;;;;;10.05;5.15;;;15.90;99.90;;;;;;5041764;28;20078;-95
2022/09/05 06:16:31;;;;;;;12.93;4.90;;;16.00;99.90;;;;;;5048212;28;20040;-95
2022/09/05 06:19:03;;;;;;;8.68;4.93;;;16.10;99.90;;;;;;5051826;28;20048;-95
2022/09/05 06:22:04;;;;;;;6.43;4.65;;;16.20;99.90;;;;;;5050122;28;20069;-96
2022/09/05 06:24:45;;;;;;;8.43;4.80;;;16.30;99.90;;;;;;5032825;28;20044;-95
2022/09/05 06:27:37;;;;;;;7.03;4.60;;;16.40;99.90;;;;;;5033673;28;20447;-95
2022/09/05 06:30:12;;;;;;;14.63;4.57;;;16.40;99.90;;;;;;5036574;28;20406;-96
2022/09/05 06:32:46;;;;;;;8.38;4.93;;;16.60;99.90;;;;;;5031744;28;20063;-95
2022/09/05 06:35:41;;;;;;;9.48;4.70;;;16.70;99.90;;;;;;5030638;28;20052;-95
2022/09/05 06:38:36;;;;;;;8.27;4.93;;;16.80;99.90;;;;;;5030189;28;20136;-95
2022/09/05 06:41:26;;;;;;;9.00;4.80;;;16.90;99.90;;;;;;5031963;28;20055;-95
2022/09/05 06:44:15;;;;;;;7.10;4.78;;;17.00;99.90;;;;;;5032040;28;20045;-95
2022/09/05 06:46:42;;;;;;;8.27;4.78;;;17.10;99.90;;;;;;5029282;28;20041;-96
2022/09/05 06:49:18;;;;;;;14.00;4.85;;;17.30;99.90;;;;;;5010080;28;20049;-95
2022/09/05 06:52:03;;;;;;;7.60;4.88;;;17.40;99.90;;;;;;5011428;28;20203;-95
2022/09/05 06:55:05;;;;;;;6.30;4.65;;;17.50;99.90;;;;;;5013907;28;20051;-95
2022/09/05 06:58:01;;;;;;;11.07;5.23;;;17.70;99.90;;;;;;5012041;28;20049;-96
2022/09/05 07:00:47;;;;;;;9.80;5.28;;;17.80;99.90;;;;;;5011191;28;20311;-95
2022/09/05 07:03:17;;;;;;;12.35;4.70;;;18.00;99.90;;;;;;5016721;28;20113;-95
2022/09/05 07:05:43;;;;;;;10.00;5.15;;;18.10;99.90;;;;;;5012978;28;20041;-95
2022/09/05 07:08:28;;;;;;;10.23;4.88;;;18.20;99.90;;;;;;5016088;28;20055;-95
2022/09/05 07:11:12;;;;;;;6.88;4.25;;;18.20;99.90;;;;;;5030498;28;20039;-96
2022/09/05 07:13:55;;;;;;;8.82;4.78;;;18.30;99.90;;;;;;5028331;28;20037;-95
2022/09/05 07:16:36;;;;;;;11.30;4.70;;;18.30;99.90;;;;;;5029812;28;20041;-95
2022/09/05 07:19:25;;;;;;;9.25;4.38;;;18.40;99.90;;;;;;5033185;28;20040;-96
2022/09/05 07:22:04;;;;;;;8.60;4.55;;;18.50;99.90;;;;;;5029981;28;20051;-95
2022/09/05 07:24:35;;;;;;;9.07;4.60;;;18.60;99.90;;;;;;5029854;28;20114;-96
2022/09/05 07:27:05;;;;;;;8.07;4.10;;;18.80;99.90;;;;;;5057469;28;20049;-94
2022/09/05 07:29:36;;;;;;;6.10;4.35;;;18.90;99.90;;;;;;5029340;28;20723;-95
2022/09/05 07:32:05;;;;;;;13.50;5.20;;;19.10;99.90;;;;;;5035905;28;20057;-95
2022/09/05 07:34:35;;;;;;;7.93;3.50;;;19.20;99.90;;;;;;5037100;28;20048;-94
2022/09/05 07:37:09;;;;;;;6.30;3.80;;;19.40;99.90;;;;;;5036154;28;20041;-95
2022/09/05 07:39:42;;;;;;;11.02;3.70;;;19.50;99.90;;;;;;5036246;28;20071;-95
2022/09/05 07:42:14;;;;;;;9.85;3.97;;;19.60;99.90;;;;;;5036202;28;20049;-95
2022/09/05 07:44:55;;;;;;;10.27;3.33;;;19.80;99.90;;;;;;5035413;28;20051;-95
2022/09/05 07:47:34;;;;;;;6.80;3.47;;;19.90;99.90;;;;;;5035167;28;20059;-96
2022/09/05 07:50:04;;;;;;;10.50;3.38;;;20.10;99.90;;;;;;5035588;28;20496;-96
2022/09/05 07:52:35;;;;;;;10.00;5.03;;;20.20;99.90;;;;;;5036351;28;20041;-96
2022/09/05 07:55:15;;;;;;;7.85;4.07;;;20.40;99.90;;;;;;5035169;28;20426;-96
2022/09/05 07:57:46;;;;;;;9.27;3.70;;;20.50;99.90;;;;;;5035868;28;20504;-96
2022/09/05 08:00:18;;;;;;;7.70;3.83;;;20.60;99.90;;;;;;5036811;28;20132;-96
2022/09/05 08:02:45;;;;;;;10.65;4.30;;;20.70;99.90;;;;;;5034771;28;20049;-96
2022/09/05 08:05:15;;;;;;;14.18;3.58;;;20.80;99.90;;;;;;5036991;28;20052;-95
2022/09/05 08:07:44;;;;;;;9.52;3.90;;;20.90;99.90;;;;;;5033272;28;20046;-95
2022/09/05 08:10:16;;;;;;;9.55;4.28;;;21.00;99.90;;;;;;5015248;28;20042;-96
2022/09/05 08:12:56;;;;;;;9.60;4.38;;;21.00;99.90;;;;;;5015159;28;20099;-96
2022/09/05 08:15:24;;;;;;;10.38;4.00;;;21.20;99.90;;;;;;5016029;28;20049;-95
2022/09/05 08:18:10;;;;;;;9.38;4.50;;;21.20;99.90;;;;;;5015289;28;20593;-95
2022/09/05 08:20:41;;;;;;;7.72;4.10;;;21.30;99.90;;;;;;5015286;28;20053;-96
2022/09/05 08:23:14;;;;;;;11.90;3.97;;;21.50;99.90;;;;;;5014399;28;20041;-96
2022/09/05 08:25:57;;;;;;;6.70;3.83;;;21.60;99.90;;;;;;5014821;28;20374;-95
2022/09/05 08:28:38;;;;;;;6.43;3.78;;;21.80;99.90;;;;;;5014235;28;20045;-96
2022/09/05 08:31:11;;;;;;;13.30;3.78;;;22.00;99.90;;;;;;5015275;28;20135;-96
2022/09/05 08:33:38;;;;;;;9.15;4.22;;;22.10;99.90;;;;;;5014692;28;20500;-96
2022/09/05 08:36:15;;;;;;;9.45;3.75;;;22.10;99.90;;;;;;5031357;28;20076;-96
2022/09/05 08:38:43;;;;;;;11.50;4.38;;;22.20;99.90;;;;;;5015132;28;20120;-96
2022/09/05 08:41:22;;;;;;;7.57;3.30;;;22.20;99.90;;;;;;5014943;28;20061;-96
2022/09/05 08:44:05;;;;;;;13.88;3.42;;;22.30;99.90;;;;;;5015076;28;20041;-96
2022/09/05 08:46:45;;;;;;;7.45;3.70;;;22.30;99.90;;;;;;5016900;28;20476;-96
2022/09/05 08:49:42;;;;;;;7.78;3.80;;;22.30;99.90;;;;;;5016897;28;20049;-96
2022/09/05 08:52:23;;;;;;;11.45;3.78;;;22.30;99.90;;;;;;5024529;28;20049;-96
2022/09/05 08:54:57;;;;;;;7.85;3.80;;;22.40;99.90;;;;;;5018514;28;20396;-96
2022/09/05 08:57:44;;;;;;;7.65;3.97;;;22.40;99.90;;;;;;5013930;28;20049;-96
2022/09/05 09:00:14;;;;;;;7.85;4.05;;;22.50;99.90;;;;;;5013916;28;20093;-95
2022/09/05 09:03:02;;;;;;;11.50;3.75;;;22.50;99.90;;;;;;5016185;28;20072;-95
2022/09/05 09:05:29;;;;;;;10.18;3.70;;;22.60;99.90;;;;;;5016748;28;20052;-96
2022/09/05 09:08:00;;;;;;;8.23;3.20;;;22.60;99.90;;;;;;5016832;28;20049;-96
2022/09/05 09:10:42;;;;;;;8.50;3.72;;;22.70;99.90;;;;;;5014826;28;20128;-95
2022/09/05 09:13:29;;;;;;;9.93;3.38;;;22.80;99.90;;;;;;5014788;28;20045;-95
2022/09/05 09:16:05;;;;;;;9.48;3.85;;;22.90;99.90;;;;;;5016120;28;20045;-96
2022/09/05 09:18:48;;;;;;;8.68;3.47;;;23.00;99.90;;;;;;5024627;28;20045;-96
2022/09/05 09:21:36;;;;;;;7.43;3.42;;;23.10;99.90;;;;;;5030811;28;20049;-96
2022/09/05 09:24:20;;;;;;;7.38;3.47;;;23.20;99.90;;;;;;5030976;28;20053;-95
2022/09/05 09:27:00;;;;;;;9.98;3.20;;;23.40;99.90;;;;;;5030604;28;20056;-96
2022/09/05 09:29:28;;;;;;;12.00;3.40;;;23.50;99.90;;;;;;5029768;28;20044;-95
2022/09/05 09:31:56;;;;;;;5.70;2.85;;;23.60;99.90;;;;;;5028917;28;20138;-96
2022/09/05 09:34:35;;;;;;;8.52;3.13;;;23.60;99.90;;;;;;5030153;28;20195;-95
2022/09/05 09:37:33;;;;;;;4.65;2.60;;;23.70;99.90;;;;;;5037920;28;20060;-96
2022/09/05 09:40:27;;;;;;;6.28;2.63;;;23.80;99.90;;;;;;5039806;28;20045;-96
2022/09/05 09:43:19;;;;;;;5.68;2.65;;;24.00;99.90;;;;;;5055795;28;20049;-96
2022/09/05 09:46:08;;;;;;;6.40;2.50;;;24.20;99.90;;;;;;5045402;28;20061;-96
2022/09/05 09:49:13;;;;;;;8.00;2.75;;;24.30;99.90;;;;;;5045146;28;20045;-96
2022/09/05 09:52:12;;;;;;;8.52;2.42;;;24.40;99.90;;;;;;5051475;28;20057;-96
2022/09/05 09:54:58;;;;;;;12.40;2.30;;;24.40;99.90;;;;;;5044075;28;20056;-96
2022/09/05 09:57:54;;;;;;;5.95;2.20;;;24.60;99.90;;;;;;5050792;28;20113;-96
2022/09/05 10:00:24;;;;;;;9.07;2.25;;;24.70;99.90;;;;;;5068145;28;20523;-96
2022/09/05 10:03:19;;;;;;;6.47;2.33;;;24.80;99.90;;;;;;5031056;28;20063;-96
2022/09/05 10:06:41;;;;;;;5.07;1.85;;;25.00;99.90;;;;;;5052483;28;20045;-96
2022/09/05 10:09:23;;;;;;;5.70;1.90;;;25.10;99.90;;;;;;5017337;28;20100;-96
2022/09/05 10:12:18;;;;;;;6.90;2.03;;;25.20;99.90;;;;;;5053401;28;20052;-96
2022/09/05 10:15:07;;;;;;;11.30;2.03;;;25.30;99.90;;;;;;5151411;23;20070;-96
2022/09/05 10:17:37;;;;;;;5.40;1.77;;;25.30;99.90;;;;;;5051301;28;20059;-96
2022/09/05 10:20:25;;;;;;;8.75;2.20;;;25.40;99.90;;;;;;5050673;28;20052;-96
2022/09/05 10:22:57;;;;;;;9.20;2.10;;;25.50;99.90;;;;;;5052006;28;20056;-95
2022/09/05 10:25:53;;;;;;;7.22;1.90;;;25.50;99.90;;;;;;5050341;28;20076;-95
2022/09/05 10:28:19;;;;;;;7.53;2.05;;;25.50;99.90;;;;;;5049767;28;20055;-96
2022/09/05 10:31:15;;;;;;;7.82;1.90;;;25.60;99.90;;;;;;5049864;28;20186;-96
2022/09/05 10:34:02;;;;;;;5.18;1.73;;;25.70;99.90;;;;;;5051858;28;20059;-96
2022/09/05 10:36:30;;;;;;;5.35;1.73;;;25.90;99.90;;;;;;5048759;28;20048;-96
2022/09/05 10:39:03;;;;;;;5.72;1.67;;;26.00;99.90;;;;;;5049046;28;20506;-95
2022/09/05 10:41:48;;;;;;;6.03;1.55;;;26.10;99.90;;;;;;5049011;28;20063;-94
2022/09/05 10:44:16;;;;;;;5.13;1.60;;;26.20;99.90;;;;;;5048723;28;20040;-95
2022/09/05 10:46:48;;;;;;;6.13;1.60;;;26.20;99.90;;;;;;5048492;28;20140;-96
2022/09/05 10:49:15;;;;;;;3.42;1.67;;;26.30;99.90;;;;;;5029459;28;20084;-96
2022/09/05 10:51:57;;;;;;;6.57;1.70;;;26.40;99.90;;;;;;5028659;28;20118;-96
2022/09/05 10:54:50;;;;;;;6.23;1.40;;;26.50;99.90;;;;;;5029834;28;20136;-96
2022/09/05 10:57:23;;;;;;;5.38;1.67;;;26.50;99.90;;;;;;5029509;28;20049;-95
2022/09/05 10:59:49;;;;;;;;;;;26.60;99.90;;;;;;5031119;28;20056;-95
2022/09/05 11:02:21;;;;;;;3.13;1.20;;;26.60;99.90;;;;;;5028282;28;20352;-96
2022/09/05 11:04:51;;;;;;;6.47;1.55;;;26.60;99.90;;;;;;5037466;28;20041;-96
2022/09/05 11:07:28;;;;;;;4.05;1.00;;;26.60;99.90;;;;;;5039963;28;20079;-96
2022/09/05 11:10:02;;;;;;;6.75;1.42;;;26.70;99.90;;;;;;5037544;28;20052;-96
2022/09/05 11:12:54;;;;;;;2.55;1.13;;;26.80;99.90;;;;;;5033343;28;20067;-94
2022/09/05 11:15:30;;;;;;;8.40;1.50;;;26.80;99.90;;;;;;5034063;28;20191;-96
2022/09/05 11:18:06;;;;;;;5.72;1.52;;;26.80;99.90;;;;;;5038319;28;20059;-96
2022/09/05 11:20:56;;;;;;;12.68;1.60;;;26.80;99.90;;;;;;5035433;28;20199;-96
2022/09/05 11:23:31;;;;;;;3.65;1.20;;;26.90;99.90;;;;;;5034433;28;20049;-96
2022/09/05 11:26:03;;;;;;;3.70;1.30;;;27.00;99.90;;;;;;5038529;28;20029;-96
2022/09/05 11:28:34;;;;;;;3.07;1.13;;;27.00;99.90;;;;;;5040971;28;20055;-96
2022/09/05 11:31:06;;;;;;;4.00;1.50;;;27.10;99.90;;;;;;5059945;28;20048;-96
2022/09/05 11:34:02;;;;;;;4.68;1.42;;;27.10;99.90;;;;;;5043520;28;20041;-96
2022/09/05 11:36:34;;;;;;;4.82;1.20;;;27.00;99.90;;;;;;5055164;28;20102;-96
2022/09/05 11:39:12;;;;;;;4.75;1.52;;;26.90;99.90;;;;;;5053186;28;20476;-96
2022/09/05 11:41:58;;;;;;;4.90;1.48;;;26.90;99.90;;;;;;5051331;28;20075;-95
2022/09/05 11:44:27;;;;;;;5.20;1.70;;;27.00;99.90;;;;;;5034352;28;20412;-96
2022/09/05 11:46:58;;;;;;;2.35;1.20;;;27.00;99.90;;;;;;5032431;28;20489;-95
2022/09/05 11:49:45;;;;;;;2.87;1.37;;;27.10;99.90;;;;;;5034748;28;20595;-95
2022/09/05 11:52:56;;;;;;;4.07;1.42;;;27.20;99.90;;;;;;5034901;28;20103;-96
2022/09/05 11:55:28;;;;;;;4.47;1.48;;;27.20;99.90;;;;;;5032167;28;20066;-96
2022/09/05 11:58:15;;;;;;;9.32;2.05;;;27.40;99.90;;;;;;5032562;28;20049;-95
2022/09/05 12:00:51;;;;;;;8.05;1.63;;;27.40;99.90;;;;;;5034531;28;20045;-96
2022/09/05 12:03:36;;;;;;;7.70;1.42;;;27.40;99.90;;;;;;5037469;28;20056;-96
2022/09/05 12:06:18;;;;;;;7.93;1.77;;;27.50;99.90;;;;;;5034340;28;20041;-95
2022/09/05 12:09:00;;;;;;;4.47;1.48;;;27.60;99.90;;;;;;5031179;28;20147;-96
2022/09/05 12:11:44;;;;;;;4.80;1.65;;;27.70;99.90;;;;;;5031802;28;20037;-95
2022/09/05 12:14:17;;;;;;;4.45;1.73;;;27.70;99.90;;;;;;5031973;28;20147;-93
2022/09/05 12:16:44;;;;;;;4.13;1.48;;;27.70;99.70;;;;;;5029788;28;20106;-94
2022/09/05 12:19:33;;;;;;;9.57;1.50;;;27.80;99.90;;;;;;5046930;28;20101;-96
2022/09/05 12:22:13;;;;;;;5.72;1.67;;;27.90;99.50;;;;;;5033142;28;20456;-96
2022/09/05 12:25:12;;;;;;;4.47;1.45;;;28.00;99.20;;;;;;5054079;28;20127;-96
2022/09/05 12:27:39;;;;;;;3.78;1.45;;;28.10;98.80;;;;;;5051024;28;20041;-95
2022/09/05 12:30:08;;;;;;;8.00;1.58;;;28.10;98.50;;;;;;5059923;28;20048;-96
2022/09/05 12:32:50;;;;;;;4.45;1.38;;;28.10;98.10;;;;;;5056874;28;20060;-96
2022/09/05 12:35:42;;;;;;;6.70;1.58;;;28.10;97.80;;;;;;5067744;28;20092;-96
2022/09/05 12:38:32;;;;;;;4.57;1.52;;;28.10;97.70;;;;;;5058369;28;20076;-95
2022/09/05 12:41:22;;;;;;;10.35;1.73;;;28.10;98.40;;;;;;5035311;28;20056;-96
2022/09/05 12:44:21;;;;;;;7.00;1.80;;;28.10;97.80;;;;;;5024687;28;20073;-95
2022/09/05 12:46:56;;;;;;;6.32;1.30;;;28.10;97.60;;;;;;4997070;28;20080;-96
2022/09/05 12:49:34;;;;;;;4.00;1.50;;;28.10;97.30;;;;;;5005704;28;20105;-96
2022/09/05 12:52:14;;;;;;;5.00;1.58;;;28.10;97.40;;;;;;5013074;28;20033;-96
2022/09/05 12:55:16;;;;;;;6.53;1.42;;;28.10;96.50;;;;;;5019460;28;20026;-96
2022/09/05 12:58:11;;;;;;;6.53;1.40;;;28.00;97.20;;;;;;5024871;28;20045;-96
2022/09/05 13:00:44;;;;;;;3.78;1.35;;;28.00;97.20;;;;;;5001591;28;20053;-96
2022/09/05 13:03:26;;;;;;;5.32;1.60;;;28.00;96.90;;;;;;5032692;28;20041;-96
2022/09/05 13:06:07;;;;;;;4.60;1.40;;;27.90;96.50;;;;;;5023453;28;20113;-96
2022/09/05 13:08:46;;;;;;;5.57;1.30;;;27.90;96.40;;;;;;4996754;28;20037;-96
2022/09/05 13:11:18;;;;;;;3.95;1.40;;;27.80;96.70;;;;;;5007399;28;20059;-95
2022/09/05 13:14:05;;;;;;;7.75;1.80;;;27.80;96.50;;;;;;5061711;28;20057;-96
2022/09/05 13:16:31;;;;;;;5.43;1.50;;;27.90;97.00;;;;;;5052571;28;20053;-95
2022/09/05 13:19:08;;;;;;;9.60;1.70;;;27.90;97.10;;;;;;5050807;28;20044;-96
2022/09/05 13:21:39;;;;;;;3.33;1.60;;;27.90;97.10;;;;;;5050303;28;20131;-96
2022/09/05 13:24:13;;;;;;;9.20;1.50;;;27.90;97.10;;;;;;5047705;28;20080;-95
2022/09/05 13:26:52;;;;;;;7.60;1.60;;;27.90;97.20;;;;;;5046929;28;20053;-95
2022/09/05 13:29:23;;;;;;;3.13;1.50;;;27.90;96.50;;;;;;5049141;28;20080;-96
2022/09/05 13:31:52;;;;;;;4.50;1.60;;;27.90;96.50;;;;;;5047589;28;20041;-95
2022/09/05 13:34:45;;;;;;;6.80;1.83;;;27.90;96.40;;;;;;5049723;28;20048;-96
2022/09/05 13:37:29;;;;;;;5.38;1.50;;;28.00;96.00;;;;;;5068889;28;20128;-96
2022/09/05 13:40:04;;;;;;;5.68;1.40;;;28.00;96.50;;;;;;5066565;28;20178;-96
2022/09/05 13:42:38;;;;;;;6.30;1.50;;;28.10;96.30;;;;;;5063057;28;20447;-96
2022/09/05 13:45:17;;;;;;;6.40;1.42;;;28.10;95.50;;;;;;5057373;28;20104;-96
2022/09/05 13:48:01;;;;;;;7.72;1.58;;;28.20;95.60;;;;;;5044843;28;20037;-85
2022/09/05 13:50:37;;;;;;;4.50;1.48;;;28.20;95.20;;;;;;5044057;28;20071;-85
2022/09/05 13:53:20;;;;;;;5.38;2.00;;;28.30;95.20;;;;;;5044404;28;20320;-88